createdAt,value
2024-02-17T00:01:15.197Z,8.39
2024-02-17T00:06:20.328Z,8.18
2024-02-17T00:11:23.933Z,8.10
2024-02-17T00:16:27.251Z,8.13
2024-02-17T00:21:30.508Z,7.92
2024-02-17T00:26:34.038Z,7.72
2024-02-17T00:31:37.601Z,7.84
2024-02-17T00:36:41.025Z,7.77
2024-02-17T00:41:45.667Z,7.54
2024-02-17T00:46:48.909Z,7.36
2024-02-17T00:51:52.037Z,7.34
2024-02-17T00:56:55.237Z,7.44
2024-02-17T01:01:59.591Z,7.37
2024-02-17T01:07:02.747Z,7.44
2024-02-17T01:12:06.530Z,6.97
2024-02-17T01:17:09.726Z,6.95
2024-02-17T01:22:12.885Z,7.12
2024-02-17T01:27:16.204Z,7.34
2024-02-17T01:32:19.408Z,7.07
2024-02-17T01:37:22.437Z,6.91
2024-02-17T01:42:25.560Z,7.15
2024-02-17T01:47:29.041Z,7.22
2024-02-17T01:52:32.990Z,7.10
2024-02-17T01:57:37.011Z,6.32
2024-02-17T02:02:43.021Z,6.73
2024-02-17T02:07:46.319Z,6.47
2024-02-17T02:12:49.651Z,6.65
2024-02-17T02:17:52.876Z,6.53
2024-02-17T02:22:56.167Z,6.51
2024-02-17T02:27:59.342Z,6.86
2024-02-17T02:33:02.784Z,6.77
2024-02-17T02:38:06.668Z,7.16
2024-02-17T02:43:10.040Z,7.32
2024-02-17T02:48:13.313Z,7.68
2024-02-17T02:53:16.744Z,7.79
2024-02-17T02:58:20.643Z,7.72
2024-02-17T03:03:24.036Z,7.78
2024-02-17T03:08:27.428Z,7.79
2024-02-17T03:13:30.695Z,7.91
2024-02-17T03:18:34.345Z,8.13
2024-02-17T03:23:37.605Z,8.09
2024-02-17T03:28:40.879Z,7.90
2024-02-17T03:34:59.933Z,7.97
2024-02-17T03:40:23.161Z,8.43
2024-02-17T03:45:26.433Z,8.63
2024-02-17T03:50:29.846Z,8.51
2024-02-17T03:55:33.282Z,8.20
2024-02-17T04:00:36.544Z,7.90
2024-02-17T04:05:39.786Z,8.00
2024-02-17T04:10:44.148Z,7.97
2024-02-17T04:15:47.697Z,8.05
2024-02-17T04:20:50.979Z,7.83
2024-02-17T04:25:54.547Z,8.10
2024-02-17T04:30:58.471Z,8.19
2024-02-17T04:36:02.023Z,8.24
2024-02-17T04:41:05.355Z,7.89
2024-02-17T04:46:08.558Z,7.75
2024-02-17T04:51:11.745Z,7.81
2024-02-17T04:56:15.515Z,7.66
2024-02-17T05:01:18.907Z,7.88
2024-02-17T05:06:23.510Z,8.04
2024-02-17T05:11:26.928Z,8.25
2024-02-17T05:16:30.108Z,8.42
2024-02-17T05:21:33.377Z,8.43
2024-02-17T05:26:37.540Z,8.59
2024-02-17T05:31:40.808Z,8.73
2024-02-17T05:36:44.039Z,8.97
2024-02-17T05:41:47.175Z,9.17
2024-02-17T05:46:50.283Z,9.35
2024-02-17T05:51:53.637Z,9.56
2024-02-17T05:56:56.839Z,9.80
2024-02-17T06:02:00.055Z,9.50
2024-02-17T06:07:04.080Z,9.67
2024-02-17T06:12:07.750Z,9.51
2024-02-17T06:17:11.827Z,9.24
2024-02-17T06:22:15.032Z,9.35
2024-02-17T06:27:18.340Z,9.65
2024-02-17T06:32:21.500Z,9.84
2024-02-17T06:37:25.150Z,9.95
2024-02-17T06:42:28.382Z,10.15
2024-02-17T06:47:31.909Z,10.22
2024-02-17T06:52:35.066Z,10.09
2024-02-17T06:57:38.905Z,10.20
2024-02-17T07:02:42.150Z,10.08
2024-02-17T07:07:45.431Z,9.96
2024-02-17T07:12:48.647Z,10.24
2024-02-17T07:17:51.893Z,10.35
2024-02-17T07:22:55.256Z,10.76
2024-02-17T07:27:59.193Z,11.15
2024-02-17T07:33:02.878Z,11.05
2024-02-17T07:38:06.362Z,11.06
2024-02-17T07:43:09.472Z,11.16
2024-02-17T07:48:12.903Z,11.46
2024-02-17T07:53:16.260Z,11.15
2024-02-17T07:58:19.583Z,10.99
2024-02-17T08:03:22.806Z,10.47
2024-02-17T08:08:26.357Z,10.72
2024-02-17T08:13:29.692Z,10.71
2024-02-17T08:18:33.472Z,10.86
2024-02-17T08:23:36.877Z,10.77
2024-02-17T08:28:40.141Z,10.81
2024-02-17T08:33:44.368Z,10.81
2024-02-17T08:38:47.916Z,10.76
2024-02-17T08:43:51.244Z,10.85
2024-02-17T08:48:54.649Z,10.98
2024-02-17T08:53:58.525Z,10.94
2024-02-17T08:59:02.034Z,10.88
2024-02-17T09:04:05.471Z,10.86
2024-02-17T09:09:09.104Z,11.11
2024-02-17T09:14:12.873Z,10.80
2024-02-17T09:19:16.229Z,10.45
2024-02-17T09:24:26.602Z,10.30
2024-02-17T09:29:29.926Z,10.02
2024-02-17T09:34:33.600Z,10.24
2024-02-17T09:39:40.853Z,10.13
2024-02-17T09:44:44.514Z,10.10
2024-02-17T09:49:48.726Z,9.83
2024-02-17T09:54:52.198Z,9.92
2024-02-17T09:59:55.632Z,9.98
2024-02-17T10:04:59.468Z,9.71
2024-02-17T10:10:03.152Z,9.76
2024-02-17T10:15:06.751Z,9.88
2024-02-17T10:20:12.208Z,9.85
2024-02-17T10:25:15.860Z,9.78
2024-02-17T10:30:21.960Z,10.03
2024-02-17T10:35:26.243Z,9.95
2024-02-17T10:40:32.189Z,10.16
2024-02-17T10:45:35.931Z,10.15
2024-02-17T10:50:43.038Z,10.29
2024-02-17T10:55:50.501Z,10.27
2024-02-17T11:00:53.863Z,10.23
2024-02-17T11:06:00.368Z,10.22
2024-02-17T11:11:22.453Z,10.32
2024-02-17T11:16:25.725Z,10.12
2024-02-17T11:21:37.854Z,10.31
2024-02-17T11:26:44.991Z,10.43
2024-02-17T11:31:49.365Z,10.59
2024-02-17T11:36:53.595Z,10.48
2024-02-17T11:41:58.510Z,10.06
2024-02-17T11:47:01.752Z,10.00
2024-02-17T11:52:05.228Z,10.26
2024-02-17T11:57:09.433Z,10.24
2024-02-17T12:02:12.569Z,10.52
2024-02-17T12:07:15.777Z,10.90
2024-02-17T12:12:18.972Z,10.90
2024-02-17T12:17:25.000Z,10.61
2024-02-17T12:22:28.569Z,10.23
2024-02-17T12:27:32.795Z,10.00
2024-02-17T12:32:39.117Z,9.78
2024-02-17T12:37:50.524Z,9.90
2024-02-17T12:42:54.892Z,9.92
2024-02-17T12:47:58.372Z,9.74
2024-02-17T12:53:16.906Z,9.84
2024-02-17T12:58:20.854Z,9.87
2024-02-17T13:03:26.054Z,10.04
2024-02-17T13:08:29.411Z,10.24
2024-02-17T13:13:34.382Z,10.32
2024-02-17T13:18:37.718Z,10.34
2024-02-17T13:23:41.044Z,10.32
2024-02-17T13:28:44.286Z,10.20
2024-02-17T13:33:48.502Z,9.96
2024-02-17T13:38:52.338Z,9.94
2024-02-17T13:43:55.542Z,10.15
2024-02-17T13:48:58.847Z,9.98
2024-02-17T13:54:04.042Z,10.05
2024-02-17T13:59:07.252Z,9.99
2024-02-17T14:04:10.709Z,10.05
2024-02-17T14:09:14.072Z,10.02
2024-02-17T14:14:19.642Z,9.96
2024-02-17T14:19:23.402Z,10.06
2024-02-17T14:24:26.713Z,10.00
2024-02-17T14:29:31.915Z,10.20
2024-02-17T14:34:35.345Z,10.35
2024-02-17T14:39:39.204Z,10.26
2024-02-17T14:44:42.727Z,10.36
2024-02-17T14:49:46.012Z,10.64
2024-02-17T14:54:49.209Z,10.49
2024-02-17T14:59:52.567Z,10.28
2024-02-17T15:04:55.768Z,10.31
2024-02-17T15:09:59.034Z,10.41
2024-02-17T15:15:03.122Z,10.48
2024-02-17T15:20:08.575Z,10.69
2024-02-17T15:25:11.811Z,10.54
2024-02-17T15:30:15.403Z,10.65
2024-02-17T15:35:18.784Z,10.59
2024-02-17T15:40:22.581Z,10.60
2024-02-17T15:45:25.764Z,10.43
2024-02-17T15:50:30.236Z,10.33
2024-02-17T15:55:33.502Z,10.22
2024-02-17T16:00:36.801Z,10.53
2024-02-17T16:05:40.183Z,10.52
2024-02-17T16:10:43.461Z,10.41
2024-02-17T16:15:49.967Z,10.48
2024-02-17T16:20:56.206Z,10.58
2024-02-17T16:25:59.467Z,10.65
2024-02-17T16:31:04.320Z,10.47
2024-02-17T16:36:08.523Z,10.56
2024-02-17T16:41:11.713Z,10.73
2024-02-17T16:46:14.871Z,10.68
2024-02-17T16:51:18.622Z,10.63
2024-02-17T16:56:21.831Z,10.33
2024-02-17T17:01:25.254Z,10.30
2024-02-17T17:06:28.535Z,10.15
2024-02-17T17:11:32.562Z,10.18
2024-02-17T17:16:35.996Z,10.22
2024-02-17T17:21:39.295Z,10.35
2024-02-17T17:26:50.004Z,10.26
2024-02-17T17:31:54.780Z,10.41
2024-02-17T17:36:58.165Z,10.14
2024-02-17T17:42:01.636Z,10.08
2024-02-17T17:47:05.845Z,10.05
2024-02-17T17:52:09.851Z,10.00
2024-02-17T17:57:13.414Z,9.87
2024-02-17T18:02:16.609Z,9.72
2024-02-17T18:07:21.521Z,9.80
2024-02-17T18:12:24.999Z,9.84
2024-02-17T18:17:29.756Z,9.94
2024-02-17T18:22:33.143Z,9.88
2024-02-17T18:27:36.655Z,9.86
2024-02-17T18:32:39.901Z,9.91
2024-02-17T18:37:43.596Z,9.98
2024-02-17T18:42:46.963Z,9.81
2024-02-17T18:47:50.441Z,9.87
2024-02-17T18:52:53.947Z,10.01
2024-02-17T18:57:57.136Z,10.06
2024-02-17T19:03:00.415Z,10.01
2024-02-17T19:08:04.617Z,10.01
2024-02-17T19:13:07.973Z,9.94
2024-02-17T19:18:11.156Z,9.83
2024-02-17T19:23:18.531Z,9.81
2024-02-17T19:28:22.448Z,9.68
2024-02-17T19:33:28.088Z,9.65
2024-02-17T19:38:31.591Z,9.60
2024-02-17T19:43:35.340Z,9.59
2024-02-17T19:48:38.858Z,9.85
2024-02-17T19:53:42.200Z,9.83
2024-02-17T19:58:45.352Z,9.83
2024-02-17T20:03:48.620Z,9.60
2024-02-17T20:08:55.478Z,9.63
2024-02-17T20:13:58.718Z,9.62
2024-02-17T20:19:02.095Z,9.70
2024-02-17T20:24:06.559Z,9.95
2024-02-17T20:29:09.911Z,9.83
2024-02-17T20:34:13.273Z,9.90
2024-02-17T20:39:16.404Z,9.82
2024-02-17T20:44:22.508Z,9.71
2024-02-17T20:49:25.647Z,9.57
2024-02-17T20:54:28.979Z,9.65
2024-02-17T20:59:32.192Z,9.74
2024-02-17T21:04:35.608Z,9.76
2024-02-17T21:09:38.951Z,9.66
2024-02-17T21:14:42.790Z,9.65
2024-02-17T21:19:46.810Z,9.66
2024-02-17T21:24:50.171Z,9.82
2024-02-17T21:29:53.324Z,9.95
2024-02-17T21:34:56.628Z,9.60
2024-02-17T21:40:00.074Z,9.61
2024-02-17T21:45:03.906Z,9.46
2024-02-17T21:50:07.407Z,9.39
2024-02-17T21:55:10.809Z,9.30
2024-02-17T22:00:14.436Z,9.37
2024-02-17T22:05:17.646Z,9.49
2024-02-17T22:10:20.969Z,9.24
2024-02-17T22:15:24.156Z,9.05
2024-02-17T22:20:27.410Z,9.15
2024-02-17T22:25:31.256Z,8.98
2024-02-17T22:30:34.633Z,8.93
2024-02-17T22:35:38.010Z,8.80
2024-02-17T22:40:41.256Z,9.14
2024-02-17T22:45:45.250Z,9.35
2024-02-17T22:50:48.485Z,9.05
2024-02-17T22:55:52.710Z,8.63
2024-02-17T23:00:56.057Z,8.61
2024-02-17T23:05:59.606Z,8.48
2024-02-17T23:11:03.987Z,8.25
2024-02-17T23:16:07.766Z,7.89
2024-02-17T23:21:11.271Z,7.89
2024-02-17T23:26:14.421Z,7.90
2024-02-17T23:31:17.693Z,7.81
2024-02-17T23:36:21.831Z,7.61
2024-02-17T23:41:25.169Z,7.64
2024-02-17T23:46:28.536Z,7.55
2024-02-17T23:51:32.270Z,7.47
2024-02-17T23:56:37.344Z,7.38
